Time;durP1;ratioP1;P1;durP2;ratioP2;P2;SDS_P1;SDS_P2;PMS_P1;PMS_P2;Temp;Humidity;BMP_temperature;BMP_pressure;BME280_temperature;BME280_humidity;BME280_pressure;Samples;Min_cycle;Max_cycle;Signal;HPM_P1;HPM_P2
2021/06/27 00:01:21;;;;;;;13.78;10.93;;;;;;;15.10;73.53;97361.98;1758657;81;25682;-85
2021/06/27 00:03:48;;;;;;;14.80;11.80;;;;;;;15.07;73.59;97360.60;1759194;81;25688;-85
2021/06/27 00:06:15;;;;;;;17.20;11.35;;;;;;;15.02;73.65;97365.09;1759976;80;25697;-84
2021/06/27 00:08:42;;;;;;;16.42;11.25;;;;;;;14.97;73.75;97369.09;1787524;78;26799;-84
2021/06/27 00:11:11;;;;;;;14.33;11.15;;;;;;;14.97;73.82;97365.01;1731003;81;26123;-84
2021/06/27 00:13:40;;;;;;;14.33;11.50;;;;;;;14.95;73.75;97367.13;1761227;80;25830;-82
2021/06/27 00:16:08;;;;;;;12.85;10.18;;;;;;;14.92;73.79;97364.89;1749384;80;25864;-84
2021/06/27 00:18:35;;;;;;;12.35;10.45;;;;;;;14.88;73.82;97359.62;1742255;80;25707;-85
2021/06/27 00:21:07;;;;;;;15.83;10.58;;;;;;;14.85;73.79;97361.48;1782223;78;27409;-84
2021/06/27 00:23:38;;;;;;;11.12;9.93;;;;;;;14.82;73.75;97357.88;1759334;81;25674;-84
2021/06/27 00:26:09;;;;;;;12.20;9.68;;;;;;;14.78;73.70;97359.71;1746440;80;25701;-83
2021/06/27 00:28:36;;;;;;;13.22;9.93;;;;;;;14.75;73.67;97362.91;1731912;80;25675;-84
2021/06/27 00:31:04;;;;;;;15.90;9.85;;;;;;;14.71;73.71;97360.39;1773376;78;26411;-84
2021/06/27 00:33:31;;;;;;;11.95;9.88;;;;;;;14.69;73.76;97362.51;1752704;80;28348;-84
2021/06/27 00:35:58;;;;;;;14.10;9.55;;;;;;;14.67;73.76;97365.99;1757056;81;25743;-82
2021/06/27 00:38:25;;;;;;;12.33;10.30;;;;;;;14.64;73.71;97360.20;1756881;80;25734;-83
2021/06/27 00:40:53;;;;;;;12.13;9.33;;;;;;;14.59;73.73;97363.65;1780986;80;25777;-83
2021/06/27 00:43:20;;;;;;;10.85;8.98;;;;;;;14.56;73.73;97368.72;1773557;80;25711;-83
2021/06/27 00:45:47;;;;;;;11.83;8.10;;;;;;;14.51;73.68;97369.42;1763686;81;27528;-83
2021/06/27 00:48:14;;;;;;;13.53;9.70;;;;;;;14.50;73.70;97372.37;1737472;81;25809;-83
2021/06/27 00:50:46;;;;;;;12.13;9.65;;;;;;;14.45;73.72;97373.10;1739351;81;25779;-83
2021/06/27 00:53:14;;;;;;;14.15;9.90;;;;;;;14.38;73.67;97375.05;1757063;81;26275;-84
2021/06/27 00:55:42;;;;;;;12.65;9.08;;;;;;;14.34;73.88;97375.25;1756713;81;25892;-83
2021/06/27 00:58:09;;;;;;;17.75;9.63;;;;;;;14.33;74.01;97373.60;1756713;81;27528;-82
2021/06/27 01:00:40;;;;;;;14.20;9.35;;;;;;;14.33;74.07;97374.95;1756708;81;25811;-83
2021/06/27 01:03:08;;;;;;;14.93;9.83;;;;;;;14.27;74.07;97367.73;1756720;81;25704;-82
2021/06/27 01:05:38;;;;;;;10.63;8.88;;;;;;;14.18;74.19;97378.13;1756585;81;25790;-82
2021/06/27 01:08:07;;;;;;;14.05;10.93;;;;;;;14.05;74.23;97379.17;1744271;81;25871;-82
2021/06/27 01:10:34;;;;;;;11.78;10.23;;;;;;;13.96;74.42;97385.19;1787857;80;27570;-82
2021/06/27 01:13:01;;;;;;;15.85;10.65;;;;;;;13.97;74.61;97384.95;1741665;81;25829;-84
2021/06/27 01:15:28;;;;;;;10.50;9.38;;;;;;;13.99;74.56;97382.02;1737552;81;25300;-82
2021/06/27 01:17:57;;;;;;;13.50;10.45;;;;;;;13.99;74.62;97378.77;1758928;81;25820;-82
2021/06/27 01:20:30;;;;;;;11.93;10.05;;;;;;;14.00;74.58;97385.85;1749268;81;25666;-82
2021/06/27 01:23:00;;;;;;;12.18;10.35;;;;;;;13.99;74.59;97373.34;1766870;81;27328;-83
2021/06/27 01:25:31;;;;;;;15.28;10.15;;;;;;;14.00;74.61;97364.67;1748748;81;25906;-83
2021/06/27 01:27:58;;;;;;;13.25;9.85;;;;;;;14.00;74.63;97367.38;1767363;81;25757;-82
2021/06/27 01:30:27;;;;;;;12.82;9.88;;;;;;;14.00;74.61;97368.74;1747183;81;25863;-82
2021/06/27 01:32:57;;;;;;;11.68;9.83;;;;;;;13.98;74.62;97375.75;1756394;81;25631;-82
2021/06/27 01:35:27;;;;;;;16.75;9.98;;;;;;;13.97;74.66;97370.03;1754386;80;27547;-82
2021/06/27 01:37:57;;;;;;;12.65;10.20;;;;;;;13.96;74.72;97369.73;1740347;81;25819;-82
2021/06/27 01:40:27;;;;;;;12.47;9.43;;;;;;;13.98;74.80;97378.47;1777459;79;25762;-82
2021/06/27 01:43:18;;;;;;;13.70;9.68;;;;;;;13.99;74.84;97376.05;1752952;80;25781;-82
2021/06/27 01:45:55;;;;;;;13.35;9.75;;;;;;;14.00;74.84;97386.37;1752718;80;25696;-82
2021/06/27 01:48:23;;;;;;;12.40;10.45;;;;;;;14.00;74.81;97383.14;1743401;81;27437;-83
2021/06/27 01:50:53;;;;;;;16.70;9.88;;;;;;;13.99;74.85;97369.80;1754089;78;25749;-82
2021/06/27 01:53:25;;;;;;;12.20;10.05;;;;;;;13.99;74.84;97370.63;1755896;81;25703;-81
2021/06/27 01:56:08;;;;;;;12.40;10.03;;;;;;;13.99;74.81;97380.13;1744784;78;25899;-82
2021/06/27 01:58:37;;;;;;;17.10;10.78;;;;;;;13.98;74.80;97373.57;1775232;80;25464;-83
2021/06/27 02:01:12;;;;;;;11.88;9.98;;;;;;;13.97;74.79;97380.05;1771632;78;27377;-83
2021/06/27 02:03:38;;;;;;;11.78;9.98;;;;;;;13.96;74.83;97374.33;1740654;81;25675;-82
2021/06/27 02:06:05;;;;;;;17.50;10.10;;;;;;;13.93;74.92;97375.62;1772975;78;25729;-82
2021/06/27 02:08:34;;;;;;;23.35;10.55;;;;;;;13.92;74.93;97383.45;1757769;80;25746;-82
2021/06/27 02:11:03;;;;;;;16.07;10.15;;;;;;;13.91;75.06;97391.30;1776067;78;25928;-82
2021/06/27 02:13:30;;;;;;;14.23;9.98;;;;;;;13.92;75.11;97389.41;1775866;78;27378;-82
2021/06/27 02:15:57;;;;;;;13.68;9.80;;;;;;;13.88;75.10;97397.22;1755474;80;25801;-81
2021/06/27 02:18:34;;;;;;;14.20;11.08;;;;;;;13.88;75.26;97399.92;1766782;78;25818;-83
2021/06/27 02:21:08;;;;;;;14.93;10.63;;;;;;;13.89;75.39;97401.55;1745060;78;25756;-81
2021/06/27 02:23:35;;;;;;;13.70;10.45;;;;;;;13.89;75.50;97401.55;1745667;78;26426;-81
2021/06/27 02:26:04;;;;;;;18.73;10.98;;;;;;;13.92;75.61;97400.27;1775900;78;27404;-83
2021/06/27 02:28:31;;;;;;;18.00;12.60;;;;;;;13.96;75.63;97404.18;1776029;78;25836;-83
2021/06/27 02:31:01;;;;;;;16.95;11.65;;;;;;;13.96;75.70;97394.16;1770074;78;25763;-83
2021/06/27 02:33:28;;;;;;;20.02;13.75;;;;;;;13.98;75.76;97395.28;1753664;80;26570;-82
2021/06/27 02:35:56;;;;;;;22.35;14.28;;;;;;;13.97;75.87;97393.09;1760830;78;25719;-83
2021/06/27 02:38:23;;;;;;;19.62;14.05;;;;;;;13.92;75.97;97394.31;1758239;80;27401;-82
2021/06/27 02:40:51;;;;;;;25.62;16.95;;;;;;;13.87;76.22;97394.20;1761331;80;25686;-83
2021/06/27 02:43:18;;;;;;;20.05;14.68;;;;;;;13.82;76.35;97395.41;1776619;80;25277;-82
2021/06/27 02:45:47;;;;;;;22.07;14.63;;;;;;;13.80;76.43;97394.81;1783654;78;26519;-84
2021/06/27 02:48:15;;;;;;;18.37;13.10;;;;;;;13.80;76.56;97389.38;1783633;78;25746;-83
2021/06/27 02:50:43;;;;;;;22.55;13.35;;;;;;;13.81;76.58;97386.97;1763846;81;27452;-81
2021/06/27 02:53:11;;;;;;;21.07;12.82;;;;;;;13.81;76.55;97381.55;1758293;81;25717;-83
2021/06/27 02:55:38;;;;;;;18.12;12.35;;;;;;;13.84;76.59;97377.02;1763775;81;25740;-83
2021/06/27 02:58:05;;;;;;;19.30;13.95;;;;;;;13.89;76.62;97381.73;1763847;79;25742;-84
2021/06/27 03:00:32;;;;;;;19.40;14.13;;;;;;;13.88;76.48;97378.75;1763591;80;25708;-83
2021/06/27 03:03:00;;;;;;;19.30;13.53;;;;;;;13.87;76.50;97386.06;1763802;79;27404;-83
2021/06/27 03:05:28;;;;;;;19.02;15.48;;;;;;;13.86;76.58;97387.11;1763724;81;25827;-82
2021/06/27 03:07:54;;;;;;;17.90;14.10;;;;;;;13.83;76.64;97382.15;1763656;80;26090;-84
2021/06/27 03:10:21;;;;;;;19.57;14.85;;;;;;;13.81;76.70;97380.19;1763874;79;25841;-83
2021/06/27 03:12:50;;;;;;;21.02;14.98;;;;;;;13.85;76.85;97385.46;1763744;81;25753;-83
2021/06/27 03:15:20;;;;;;;20.10;16.12;;;;;;;13.90;76.89;97379.31;1763905;79;27455;-84
2021/06/27 03:17:47;;;;;;;19.12;15.05;;;;;;;13.95;76.95;97380.81;1763702;81;25789;-84
2021/06/27 03:20:16;;;;;;;17.02;13.85;;;;;;;13.98;76.84;97375.75;1763783;79;25232;-84
2021/06/27 03:22:44;;;;;;;20.27;14.60;;;;;;;13.98;76.83;97366.78;1763801;79;25888;-84
2021/06/27 03:25:12;;;;;;;25.82;16.52;;;;;;;13.99;76.93;97371.16;1742343;81;25746;-84
2021/06/27 03:27:38;;;;;;;15.53;13.43;;;;;;;14.02;76.99;97374.73;1763713;80;27390;-83
2021/06/27 03:30:08;;;;;;;14.20;12.70;;;;;;;14.02;76.94;97376.92;1763671;81;25753;-84
2021/06/27 03:32:36;;;;;;;16.35;13.18;;;;;;;13.97;76.87;97370.55;1763847;81;25730;-84
2021/06/27 03:35:05;;;;;;;16.73;13.78;;;;;;;14.02;77.06;97370.14;1763468;81;25750;-84
2021/06/27 03:37:31;;;;;;;17.65;14.07;;;;;;;14.08;77.11;97363.48;1760557;78;26110;-83
2021/06/27 03:39:58;;;;;;;18.37;13.72;;;;;;;14.13;77.19;97369.05;1760765;80;27535;-83
2021/06/27 03:42:25;;;;;;;20.20;14.73;;;;;;;14.17;77.12;97366.97;1760705;80;25296;-83
2021/06/27 03:44:52;;;;;;;20.25;14.00;;;;;;;14.14;76.92;97373.39;1760762;80;25686;-84
2021/06/27 03:47:19;;;;;;;16.82;13.08;;;;;;;14.14;77.07;97367.97;1739269;81;25851;-84
2021/06/27 03:49:45;;;;;;;19.62;12.00;;;;;;;14.18;77.12;97373.23;1760964;80;26505;-82
2021/06/27 03:52:12;;;;;;;18.05;13.45;;;;;;;14.21;77.07;97365.98;1760708;81;27356;-83
2021/06/27 03:54:38;;;;;;;17.70;12.78;;;;;;;14.24;76.98;97364.98;1760663;81;25671;-83
2021/06/27 03:57:06;;;;;;;15.13;12.10;;;;;;;14.26;76.95;97364.73;1760639;80;25300;-84
2021/06/27 03:59:33;;;;;;;18.92;12.25;;;;;;;14.27;76.87;97366.38;1760670;81;25821;-84
2021/06/27 04:01:59;;;;;;;18.37;12.33;;;;;;;14.31;76.94;97368.40;1760816;81;25791;-83
2021/06/27 04:04:26;;;;;;;15.60;11.60;;;;;;;14.36;76.99;97371.78;1760783;81;28113;-84
2021/06/27 04:06:52;;;;;;;14.63;11.83;;;;;;;14.40;76.98;97373.80;1760755;81;25835;-83
2021/06/27 04:09:19;;;;;;;13.35;10.68;;;;;;;14.46;77.08;97372.57;1760601;81;25753;-84
2021/06/27 04:11:45;;;;;;;14.95;11.03;;;;;;;14.49;76.96;97363.95;1760702;80;26598;-84
2021/06/27 04:14:14;;;;;;;16.42;10.55;;;;;;;14.53;76.94;97361.87;1760769;79;25693;-84
2021/06/27 04:16:41;;;;;;;13.20;10.80;;;;;;;14.56;76.84;97350.53;1760231;81;28256;-83
2021/06/27 04:19:08;;;;;;;12.88;10.00;;;;;;;14.61;76.83;97348.48;1760340;79;25699;-83
2021/06/27 04:21:34;;;;;;;11.50;10.30;;;;;;;14.65;76.92;97349.10;1760811;81;25711;-84
2021/06/27 04:24:01;;;;;;;11.68;10.48;;;;;;;14.72;76.90;97349.81;1760829;81;25805;-83
2021/06/27 04:26:28;;;;;;;15.48;10.93;;;;;;;14.75;76.78;97348.48;1760741;81;25817;-83
2021/06/27 04:28:54;;;;;;;14.93;10.50;;;;;;;14.81;76.74;97350.80;1760784;81;27366;-83
2021/06/27 04:31:21;;;;;;;12.28;10.90;;;;;;;14.84;76.65;97354.40;1760471;81;25786;-84
2021/06/27 04:33:47;;;;;;;11.85;10.20;;;;;;;14.87;76.69;97352.54;1760713;79;25821;-83
2021/06/27 04:36:16;;;;;;;11.50;10.30;;;;;;;14.89;76.66;97354.48;1764357;79;26685;-84
2021/06/27 04:38:43;;;;;;;13.65;9.98;;;;;;;14.95;76.70;97357.09;1774918;80;25669;-84
2021/06/27 04:41:09;;;;;;;13.85;10.72;;;;;;;15.00;76.71;97354.45;1774986;79;27362;-84
2021/06/27 04:43:36;;;;;;;13.20;10.23;;;;;;;15.07;76.59;97352.98;1774731;79;25725;-84
2021/06/27 04:46:03;;;;;;;12.23;10.10;;;;;;;15.12;76.50;97348.98;1774890;80;25674;-83
2021/06/27 04:48:30;;;;;;;15.55;10.53;;;;;;;15.18;76.53;97349.92;1774674;79;26542;-85
2021/06/27 04:50:57;;;;;;;14.10;10.32;;;;;;;15.15;76.59;97344.43;1774888;80;26427;-83
2021/06/27 04:53:23;;;;;;;13.35;10.88;;;;;;;15.13;76.66;97343.84;1753116;80;27362;-83
2021/06/27 04:55:50;;;;;;;12.80;11.33;;;;;;;15.16;76.87;97349.34;1774704;79;25732;-83
2021/06/27 04:58:16;;;;;;;13.83;10.58;;;;;;;15.15;76.85;97344.43;1774820;79;25690;-83
2021/06/27 05:00:45;;;;;;;15.48;11.35;;;;;;;15.21;76.96;97339.40;1774848;80;25751;-85
2021/06/27 05:03:11;;;;;;;16.37;12.03;;;;;;;15.29;76.99;97344.45;1774637;79;25678;-86
2021/06/27 05:05:38;;;;;;;13.85;11.08;;;;;;;15.35;76.93;97336.66;1774860;79;27422;-84
2021/06/27 05:08:05;;;;;;;15.10;11.30;;;;;;;15.43;76.83;97336.29;1774817;80;25738;-83
2021/06/27 05:10:31;;;;;;;13.28;11.60;;;;;;;15.49;76.90;97338.55;1774788;80;25709;-84
2021/06/27 05:12:58;;;;;;;16.40;12.95;;;;;;;15.53;76.88;97329.38;1774782;80;25849;-83
2021/06/27 05:15:25;;;;;;;12.85;10.98;;;;;;;15.56;77.01;97328.39;1774528;79;43742;-83
2021/06/27 05:17:52;;;;;;;14.43;10.82;;;;;;;15.62;77.00;97332.84;1774646;79;27419;-83
2021/06/27 05:20:19;;;;;;;12.43;10.95;;;;;;;15.68;76.98;97333.77;1774738;79;25676;-84
2021/06/27 05:22:45;;;;;;;12.10;10.90;;;;;;;15.77;77.03;97335.00;1774910;80;25660;-84
2021/06/27 05:25:13;;;;;;;13.95;11.20;;;;;;;15.85;77.04;97335.95;1774866;80;25775;-83
2021/06/27 05:27:39;;;;;;;12.90;11.55;;;;;;;15.93;76.83;97326.04;1774767;80;25690;-83
2021/06/27 05:30:08;;;;;;;12.68;11.25;;;;;;;16.00;76.61;97323.97;1774929;79;27454;-81
2021/06/27 05:32:34;;;;;;;13.05;11.65;;;;;;;16.08;76.62;97334.97;1774801;79;26240;-83
2021/06/27 05:35:01;;;;;;;14.10;10.50;;;;;;;16.16;76.55;97328.59;1774762;79;25773;-83
2021/06/27 05:37:27;;;;;;;13.72;10.88;;;;;;;16.24;76.43;97334.67;1765178;80;25886;-85
2021/06/27 05:39:54;;;;;;;12.00;10.75;;;;;;;16.29;76.34;97336.95;1760572;81;25759;-83
2021/06/27 05:42:20;;;;;;;11.68;10.58;;;;;;;16.36;76.26;97335.41;1754697;81;28323;-81
2021/06/27 05:44:47;;;;;;;12.47;10.45;;;;;;;16.42;76.08;97333.86;1760600;81;25872;-85
2021/06/27 05:47:14;;;;;;;14.30;11.12;;;;;;;16.50;76.08;97333.98;1760824;80;25766;-86
2021/06/27 05:49:40;;;;;;;12.18;10.80;;;;;;;16.57;75.88;97337.34;1760655;80;26563;-84
2021/06/27 05:52:07;;;;;;;11.28;10.18;;;;;;;16.65;75.87;97346.50;1760603;80;25939;-85
2021/06/27 05:54:33;;;;;;;11.55;10.45;;;;;;;16.71;75.73;97340.03;1760712;80;28239;-83
2021/06/27 05:57:00;;;;;;;13.13;10.98;;;;;;;16.73;75.61;97340.61;1760262;81;25715;-82
2021/06/27 05:59:27;;;;;;;10.45;9.33;;;;;;;16.82;75.66;97348.63;1760822;81;25675;-86
2021/06/27 06:01:53;;;;;;;13.45;10.35;;;;;;;16.91;75.53;97352.56;1760935;80;25890;-85
2021/06/27 06:04:20;;;;;;;11.78;9.80;;;;;;;17.01;75.45;97352.42;1760575;81;25687;-85
2021/06/27 06:06:47;;;;;;;10.80;9.80;;;;;;;17.09;75.52;97350.61;1760067;81;28189;-86
2021/06/27 06:09:13;;;;;;;13.78;10.72;;;;;;;17.18;75.34;97346.34;1760719;80;25710;-85
2021/06/27 06:11:40;;;;;;;10.78;9.78;;;;;;;17.25;75.09;97347.82;1760754;80;25627;-86
2021/06/27 06:14:07;;;;;;;12.53;9.78;;;;;;;17.34;74.99;97342.73;1760930;80;25888;-84
2021/06/27 06:16:33;;;;;;;10.75;9.75;;;;;;;17.45;75.14;97347.22;1760830;79;25265;-85
2021/06/27 06:19:01;;;;;;;10.78;9.58;;;;;;;17.55;75.20;97351.41;1760820;81;27537;-85
2021/06/27 06:21:28;;;;;;;10.50;9.40;;;;;;;17.66;75.02;97362.45;1760542;80;25814;-86
2021/06/27 06:23:54;;;;;;;12.37;9.85;;;;;;;17.75;74.89;97358.20;1760956;81;25686;-85
2021/06/27 06:26:21;;;;;;;15.05;11.12;;;;;;;17.82;74.70;97354.71;1755127;79;25808;-85
2021/06/27 06:28:47;;;;;;;12.07;10.82;;;;;;;17.90;74.60;97357.79;1745545;81;25700;-85
2021/06/27 06:31:14;;;;;;;12.73;10.53;;;;;;;17.96;74.33;97360.04;1760806;80;27488;-84
2021/06/27 06:33:42;;;;;;;14.55;10.72;;;;;;;18.01;74.40;97362.80;1760684;81;25697;-91
2021/06/27 06:36:08;;;;;;;12.68;11.38;;;;;;;18.11;74.40;97361.55;1764873;79;25793;-85
2021/06/27 06:38:35;;;;;;;14.20;11.85;;;;;;;18.22;74.23;97361.91;1760515;79;26477;-84
2021/06/27 06:41:02;;;;;;;11.45;10.25;;;;;;;18.31;73.94;97360.88;1760858;80;25715;-82
2021/06/27 06:43:29;;;;;;;12.55;10.93;;;;;;;18.36;73.97;97360.35;1760850;80;27367;-84
2021/06/27 06:45:56;;;;;;;12.33;10.78;;;;;;;18.47;73.79;97357.72;1760609;81;25297;-84
2021/06/27 06:48:22;;;;;;;11.63;10.43;;;;;;;18.53;73.67;97352.55;1760841;80;25711;-85
2021/06/27 06:50:49;;;;;;;12.45;10.63;;;;;;;18.59;73.67;97352.91;1760718;81;25694;-84
2021/06/27 06:53:15;;;;;;;11.40;10.28;;;;;;;18.68;73.56;97358.98;1760839;81;25754;-84
2021/06/27 06:55:42;;;;;;;11.80;9.98;;;;;;;18.77;73.41;97364.77;1760796;81;28337;-84
2021/06/27 06:58:08;;;;;;;11.73;10.53;;;;;;;18.88;73.22;97373.30;1760759;81;25797;-85
2021/06/27 07:00:35;;;;;;;10.25;9.20;;;;;;;18.94;73.14;97361.86;1759768;81;25803;-85
2021/06/27 07:03:02;;;;;;;10.78;9.78;;;;;;;19.01;72.92;97363.25;1760300;81;26436;-84
2021/06/27 07:05:28;;;;;;;10.60;9.53;;;;;;;19.08;72.94;97363.58;1759906;81;26186;-84
2021/06/27 07:07:55;;;;;;;11.38;9.35;;;;;;;19.16;72.82;97361.69;1739744;81;27506;-83
2021/06/27 07:10:22;;;;;;;13.58;10.13;;;;;;;19.25;72.85;97362.81;1760309;80;25787;-82
2021/06/27 07:12:49;;;;;;;11.20;10.10;;;;;;;19.32;72.65;97371.61;1759958;81;25710;-82
2021/06/27 07:15:16;;;;;;;11.97;10.88;;;;;;;19.39;72.47;97365.33;1744485;80;25763;-81
2021/06/27 07:17:42;;;;;;;12.10;10.88;;;;;;;19.46;72.28;97369.17;1738059;81;25758;-83
2021/06/27 07:20:10;;;;;;;10.90;9.78;;;;;;;19.52;72.00;97374.44;1733406;81;28111;-81
2021/06/27 07:22:37;;;;;;;10.75;9.75;;;;;;;19.58;71.99;97371.98;1739501;81;25745;-81
2021/06/27 07:25:06;;;;;;;10.48;9.48;;;;;;;19.69;72.04;97372.28;1743382;81;25679;-83
2021/06/27 07:27:33;;;;;;;13.00;10.58;;;;;;;19.78;71.61;97365.20;1750620;81;26560;-82
2021/06/27 07:29:59;;;;;;;11.75;10.65;;;;;;;19.87;71.38;97362.74;1760641;81;25777;-83
2021/06/27 07:32:26;;;;;;;14.28;10.48;;;;;;;19.97;71.21;97367.41;1755920;79;27508;-84
2021/06/27 07:34:52;;;;;;;10.70;9.60;;;;;;;20.01;70.90;97368.52;1744533;81;25280;-82
2021/06/27 07:37:19;;;;;;;11.68;9.63;;;;;;;20.09;71.14;97365.23;1734996;79;25705;-84
2021/06/27 07:39:46;;;;;;;10.80;9.80;;;;;;;20.19;70.86;97369.88;1701618;82;25895;-84
2021/06/27 07:42:12;;;;;;;13.18;9.95;;;;;;;20.25;70.66;97372.37;1736391;81;25722;-85
2021/06/27 07:44:39;;;;;;;10.82;9.08;;;;;;;20.32;70.32;97375.64;1746275;81;28124;-83
2021/06/27 07:47:05;;;;;;;10.18;9.10;;;;;;;20.35;70.10;97375.14;1735876;81;25791;-82
2021/06/27 07:49:32;;;;;;;9.95;8.85;;;;;;;20.39;69.69;97370.76;1736249;80;25762;-84
2021/06/27 07:51:59;;;;;;;9.28;8.38;;;;;;;20.45;69.40;97376.50;1736196;80;25919;-82
2021/06/27 07:54:25;;;;;;;11.78;8.60;;;;;;;20.50;69.19;97375.69;1736279;80;25747;-84
2021/06/27 07:56:52;;;;;;;10.78;9.28;;;;;;;20.45;68.97;97366.90;1736139;82;27348;-83
2021/06/27 07:59:18;;;;;;;13.58;8.70;;;;;;;20.51;68.90;97365.54;1736191;80;26071;-81
2021/06/27 08:01:45;;;;;;;9.30;8.30;;;;;;;20.56;68.84;97360.03;1736182;81;25804;-83
2021/06/27 08:04:11;;;;;;;10.53;9.50;;;;;;;20.66;68.67;97358.64;1711956;81;25837;-84
2021/06/27 08:06:38;;;;;;;10.53;8.85;;;;;;;20.73;68.62;97357.27;1708613;80;25780;-83
2021/06/27 08:09:05;;;;;;;10.18;8.28;;;;;;;20.80;68.85;97355.59;1710058;82;27424;-83
2021/06/27 08:11:32;;;;;;;8.93;8.13;;;;;;;21.01;68.61;97354.44;1740969;81;26506;-84
2021/06/27 08:13:59;;;;;;;8.85;8.05;;;;;;;21.27;68.40;97357.95;1711257;82;25879;-84
2021/06/27 08:16:25;;;;;;;8.73;7.83;;;;;;;21.50;68.27;97360.03;1728618;81;26515;-84
2021/06/27 08:18:52;;;;;;;11.55;8.53;;;;;;;21.85;67.98;97352.16;1728699;81;25762;-84
2021/06/27 08:21:20;;;;;;;8.15;7.37;;;;;;;22.67;67.08;97343.27;1730520;81;27600;-84
2021/06/27 08:23:47;;;;;;;10.55;7.62;;;;;;;22.67;67.08;97343.27;1729218;80;25836;-85
2021/06/27 08:26:14;;;;;;;8.80;7.90;;;;;;;23.03;66.48;97342.36;1721661;81;26390;-84
2021/06/27 08:28:40;;;;;;;10.20;7.08;;;;;;;23.26;65.94;97342.35;1721546;82;25860;-83
2021/06/27 08:31:07;;;;;;;7.50;6.67;;;;;;;23.57;65.46;97341.97;1725440;80;25784;-84
2021/06/27 08:33:34;;;;;;;9.83;6.83;;;;;;;23.83;63.95;97340.50;1730544;80;27539;-84
2021/06/27 08:36:00;;;;;;;7.45;6.75;;;;;;;23.84;63.16;97339.38;1730448;81;25822;-84
2021/06/27 08:38:27;;;;;;;8.05;5.95;;;;;;;23.91;62.96;97345.33;1762981;79;25722;-83
2021/06/27 08:40:57;;;;;;;9.88;5.78;;;;;;;23.98;62.33;97340.28;1780209;79;26092;-84
2021/06/27 08:43:31;;;;;;;7.97;5.97;;;;;;;24.10;61.95;97343.95;1761594;81;25726;-84
2021/06/27 08:46:05;;;;;;;7.87;5.17;;;;;;;24.25;61.28;97344.31;1761498;81;28805;-84
2021/06/27 08:48:30;;;;;;;7.50;4.62;;;;;;;24.43;60.51;97348.95;1760748;80;26087;-83
2021/06/27 08:50:58;;;;;;;6.62;4.65;;;;;;;24.51;59.49;97348.84;1761382;81;26409;-82
2021/06/27 08:53:24;;;;;;;6.25;4.72;;;;;;;24.67;59.02;97345.50;1761402;81;26864;-83
2021/06/27 08:56:05;;;;;;;6.87;5.00;;;;;;;24.60;57.57;97343.70;1761460;81;25848;-82
2021/06/27 08:58:19;;;;;;;4.87;4.15;;;;;;;24.56;57.60;97344.04;1761366;81;27445;-81
2021/06/27 09:00:46;;;;;;;6.97;4.47;;;;;;;24.85;57.90;97334.70;1761463;80;25786;-80
2021/06/27 09:03:12;;;;;;;5.20;4.80;;;;;;;25.27;57.91;97328.91;1761517;80;26347;-80
2021/06/27 09:05:39;;;;;;;7.60;4.72;;;;;;;25.60;56.89;97326.02;1761135;81;25737;-82
2021/06/27 09:08:18;;;;;;;6.35;4.85;;;;;;;25.94;56.71;97328.31;1761531;81;25415;-82
2021/06/27 09:10:46;;;;;;;4.97;4.55;;;;;;;26.33;56.21;97328.47;1761371;81;27462;-81
2021/06/27 09:13:13;;;;;;;6.47;4.28;;;;;;;26.54;54.78;97332.95;1761256;81;25785;-82
2021/06/27 09:15:49;;;;;;;6.08;3.85;;;;;;;26.40;53.97;97329.43;1761510;80;25241;-83
2021/06/27 09:18:21;;;;;;;5.22;4.35;;;;;;;26.40;53.68;97330.81;1761500;81;25750;-82
2021/06/27 09:20:56;;;;;;;;;;;;;;;26.67;53.58;97330.67;1764268;81;25821;-81
2021/06/27 09:23:42;;;;;;;5.75;4.62;;;;;;;26.85;52.34;97328.80;1761615;81;27357;-81
2021/06/27 09:26:09;;;;;;;5.00;3.85;;;;;;;27.06;53.64;97327.69;1761343;81;25952;-83
2021/06/27 09:28:49;;;;;;;5.25;4.50;;;;;;;27.37;53.07;97322.11;1792864;78;25745;-82
2021/06/27 09:31:38;;;;;;;5.92;5.00;;;;;;;27.66;52.45;97321.53;1761449;80;25686;-81
2021/06/27 09:34:09;;;;;;;5.58;4.35;;;;;;;27.94;52.03;97319.53;1761445;81;25642;-79
2021/06/27 09:36:46;;;;;;;4.80;3.95;;;;;;;28.12;51.26;97320.38;1760798;81;26995;-81
2021/06/27 09:39:18;;;;;;;4.90;4.15;;;;;;;28.27;50.64;97317.11;1760760;81;25772;-81
2021/06/27 09:41:54;;;;;;;4.87;4.37;;;;;;;28.54;50.52;97313.72;1761632;80;25240;-82
2021/06/27 09:44:22;;;;;;;4.67;4.20;;;;;;;28.73;49.73;97316.14;1761216;81;26476;-80
2021/06/27 09:46:55;;;;;;;5.62;4.80;;;;;;;28.76;50.02;97317.66;1761436;80;25663;-79
2021/06/27 09:49:31;;;;;;;4.95;4.05;;;;;;;28.96;49.46;97317.00;1761407;81;27430;-80
2021/06/27 09:52:07;;;;;;;4.80;4.40;;;;;;;29.20;48.94;97309.46;1761314;80;26408;-79
2021/06/27 09:54:36;;;;;;;6.90;4.60;;;;;;;29.14;47.65;97312.17;1761142;80;25765;-80
2021/06/27 09:57:03;;;;;;;4.62;4.22;;;;;;;28.69;47.55;97314.59;1762125;80;25980;-82
2021/06/27 09:59:37;;;;;;;5.10;4.17;;;;;;;28.15;47.33;97309.98;1766486;80;25692;-81
2021/06/27 10:02:05;;;;;;;5.22;4.72;;;;;;;27.95;48.10;97306.48;1757184;81;27439;-81
2021/06/27 10:04:36;;;;;;;5.05;4.53;;;;;;;27.85;47.73;97306.81;1753307;81;25773;-82
2021/06/27 10:07:06;;;;;;;4.95;4.45;;;;;;;27.54;48.08;97308.27;1785289;78;25705;-80
2021/06/27 10:09:39;;;;;;;5.47;5.05;;;;;;;27.25;48.49;97304.72;1785216;78;26746;-81
2021/06/27 10:12:16;;;;;;;4.60;4.20;;;;;;;27.10;49.17;97303.77;1748224;80;25788;-81
2021/06/27 10:14:53;;;;;;;7.03;4.30;;;;;;;26.92;49.28;97302.05;1761477;80;27431;-80
2021/06/27 10:17:23;;;;;;;7.30;4.78;;;;;;;26.87;49.55;97301.03;1761369;80;25862;-80
2021/06/27 10:19:51;;;;;;;4.33;3.92;;;;;;;26.74;49.56;97301.95;1753253;80;25254;-81
2021/06/27 10:22:20;;;;;;;5.22;4.67;;;;;;;26.54;49.34;97301.94;1754907;81;26108;-82
2021/06/27 10:24:46;;;;;;;4.83;4.42;;;;;;;26.34;49.28;97305.20;1751802;81;25684;-81
2021/06/27 10:27:13;;;;;;;6.10;4.95;;;;;;;26.23;49.88;97303.80;1761270;80;27528;-81
2021/06/27 10:29:44;;;;;;;11.83;9.60;;;;;;;26.11;49.95;97297.45;1760986;80;25846;-82
2021/06/27 10:32:15;;;;;;;5.58;5.08;;;;;;;25.99;49.80;97304.10;1761402;80;25708;-82
2021/06/27 10:34:42;;;;;;;4.90;4.50;;;;;;;25.89;50.12;97302.97;1761593;81;25940;-81
2021/06/27 10:37:13;;;;;;;5.15;4.58;;;;;;;25.88;50.04;97294.98;1753766;80;25787;-81
2021/06/27 10:40:02;;;;;;;5.05;4.55;;;;;;;25.84;49.63;97296.98;1758107;80;27472;-82
2021/06/27 10:43:01;;;;;;;5.50;4.92;;;;;;;25.78;49.01;97299.62;1758385;81;25684;-82
2021/06/27 10:45:32;;;;;;;8.80;4.58;;;;;;;25.75;48.91;97289.75;1760311;80;25742;-80
2021/06/27 10:48:01;;;;;;;4.65;4.25;;;;;;;25.82;49.29;97287.39;1744151;81;26326;-82
2021/06/27 10:50:52;;;;;;;5.45;4.87;;;;;;;25.92;48.89;97284.38;1757083;81;25869;-82
2021/06/27 10:53:18;;;;;;;6.95;4.60;;;;;;;25.92;48.85;97280.23;1745195;80;28156;-82
2021/06/27 10:55:45;;;;;;;7.15;4.83;;;;;;;25.88;49.25;97281.98;1747176;80;25701;-82
2021/06/27 10:58:16;;;;;;;5.03;4.62;;;;;;;25.96;49.86;97278.48;1767532;80;25749;-82
2021/06/27 11:00:58;;;;;;;7.17;5.03;;;;;;;26.16;49.79;97277.97;1746270;81;26460;-82
2021/06/27 11:03:34;;;;;;;4.72;4.22;;;;;;;26.40;49.11;97272.70;1793328;78;25697;-83
2021/06/27 11:06:05;;;;;;;6.70;4.30;;;;;;;26.51;49.46;97268.53;1751749;80;27462;-83
2021/06/27 11:08:42;;;;;;;4.78;4.30;;;;;;;26.67;48.73;97271.71;1770411;80;26376;-83
2021/06/27 11:11:21;;;;;;;6.40;4.15;;;;;;;26.69;48.82;97268.84;1756895;81;25501;-81
2021/06/27 11:14:17;;;;;;;5.53;4.75;;;;;;;26.83;48.59;97273.72;1788401;80;26287;-83
2021/06/27 11:17:09;;;;;;;4.50;4.10;;;;;;;27.05;48.98;97272.85;1768545;80;25709;-81
2021/06/27 11:19:41;;;;;;;7.95;4.80;;;;;;;27.36;48.84;97270.02;1777875;80;28156;-81
2021/06/27 11:22:19;;;;;;;6.30;4.83;;;;;;;27.55;48.09;97269.17;1774162;80;26452;-82
2021/06/27 11:24:49;;;;;;;6.25;4.30;;;;;;;27.67;48.08;97258.01;1772170;80;26370;-82
2021/06/27 11:27:38;;;;;;;5.10;4.65;;;;;;;27.82;47.48;97272.22;1775103;80;26541;-86
2021/06/27 11:30:28;;;;;;;5.30;4.80;;;;;;;27.84;46.86;97269.12;1771255;80;25725;-80
2021/06/27 11:32:55;;;;;;;4.40;3.98;;;;;;;27.80;46.03;97263.97;1761261;80;28190;-80